Time,TemperatureF,DewpointF,PressureIn,WindDirection,WindDirectionDegrees,WindSpeedMPH,WindSpeedGustMPH,Humidity,HourlyPrecipIn,Conditions,Clouds,dailyrainin,SolarRadiationWatts/m^2,SoftwareType,DateUTC
2013-06-15 00:00:00,52.0,52.0,-100.00,NNW,337,0.0,-999.0,100,-99.99,,,-99.99,0.000000,,2013-06-15 04:00:00,
2013-06-15 00:43:00,52.0,52.0,-100.00,NNW,337,0.0,-999.0,100,-99.99,,,-99.99,0.000000,,2013-06-15 04:43:00,
2013-06-15 00:54:00,52.0,52.0,-100.00,NNW,337,0.0,-999.0,100,-99.99,,,-99.99,0.000000,,2013-06-15 04:54:00,
2013-06-15 01:00:00,51.0,51.0,-100.00,NNW,337,0.0,-999.0,101,-99.99,,,-99.99,0.000000,,2013-06-15 05:00:00,
2013-06-15 01:43:00,51.0,51.0,-100.00,NNW,337,0.0,-999.0,101,-99.99,,,-99.99,0.000000,,2013-06-15 05:43:00,
2013-06-15 01:52:00,51.0,51.0,-100.00,NNW,337,0.0,-999.0,101,-99.99,,,-99.99,0.000000,,2013-06-15 05:52:00,
2013-06-15 02:00:00,51.0,51.0,-100.00,NNW,337,0.0,-999.0,102,-99.99,,,-99.99,0.000000,,2013-06-15 06:00:00,
2013-06-15 02:43:00,51.0,51.0,-100.00,NNW,337,0.0,-999.0,102,-99.99,,,-99.99,0.000000,,2013-06-15 06:43:00,
2013-06-15 02:53:00,51.0,51.0,-100.00,NNW,337,0.0,-999.0,102,-99.99,,,-99.99,0.000000,,2013-06-15 06:53:00,
2013-06-15 03:00:00,50.0,50.0,-100.00,NNW,337,0.0,-999.0,102,-99.99,,,-99.99,0.000000,,2013-06-15 07:00:00,
2013-06-15 03:33:00,50.0,50.0,-100.00,NNW,337,0.0,-999.0,102,-99.99,,,-99.99,0.000000,,2013-06-15 07:33:00,
2013-06-15 03:43:00,50.0,50.0,-100.00,NNW,337,0.0,-999.0,102,-99.99,,,-99.99,0.000000,,2013-06-15 07:43:00,
2013-06-15 03:54:00,50.0,50.0,-100.00,NNW,337,0.0,-999.0,102,-99.99,,,-99.99,0.000000,,2013-06-15 07:54:00,
2013-06-15 04:00:00,51.0,51.0,-100.00,South,180,0.0,-999.0,102,-99.99,,,-99.99,0.000000,,2013-06-15 08:00:00,
2013-06-15 04:33:00,51.0,51.0,-100.00,South,180,0.0,-999.0,102,-99.99,,,-99.99,0.000000,,2013-06-15 08:33:00,
2013-06-15 04:43:00,51.0,51.0,-100.00,South,180,0.0,-999.0,102,-99.99,,,-99.99,0.000000,,2013-06-15 08:43:00,
2013-06-15 04:53:00,51.0,51.0,-100.00,South,180,0.0,-999.0,102,-99.99,,,-99.99,0.000000,,2013-06-15 08:53:00,
2013-06-15 05:00:00,52.0,52.0,-100.00,SSE,157,0.0,-999.0,102,-99.99,,,-99.99,0.000000,,2013-06-15 09:00:00,
2013-06-15 05:43:00,52.0,52.0,-100.00,SSE,157,0.0,-999.0,102,-99.99,,,-99.99,0.000000,,2013-06-15 09:43:00,
2013-06-15 05:52:00,52.0,52.0,-100.00,SSE,157,0.0,-999.0,102,-99.99,,,-99.99,0.000000,,2013-06-15 09:52:00,
2013-06-15 07:00:00,58.0,58.0,-100.00,South,180,1.0,-999.0,102,-99.99,,,-99.99,24.360001,,2013-06-15 11:00:00,
2013-06-15 07:43:00,58.0,58.0,-100.00,South,180,1.0,-999.0,102,-99.99,,,-99.99,24.360001,,2013-06-15 11:43:00,
2013-06-15 07:53:00,58.0,58.0,-100.00,South,180,1.0,-999.0,102,-99.99,,,-99.99,24.360001,,2013-06-15 11:53:00,
2013-06-15 08:00:00,60.0,60.0,-100.00,South,180,2.0,-999.0,99,-99.99,,,-99.99,63.799999,,2013-06-15 12:00:00,
2013-06-15 08:44:00,60.0,60.0,-100.00,South,180,2.0,-999.0,99,-99.99,,,-99.99,63.799999,,2013-06-15 12:44:00,
2013-06-15 08:52:00,60.0,60.0,-100.00,South,180,2.0,-999.0,99,-99.99,,,-99.99,63.799999,,2013-06-15 12:52:00,
2013-06-15 09:00:00,63.0,60.0,-100.00,South,180,3.0,-999.0,91,-99.99,,,-99.99,103.239998,,2013-06-15 13:00:00,
2013-06-15 09:44:00,63.0,60.0,-100.00,South,180,3.0,-999.0,91,-99.99,,,-99.99,103.239998,,2013-06-15 13:44:00,
2013-06-15 09:53:00,63.0,60.0,-100.00,South,180,3.0,-999.0,91,-99.99,,,-99.99,103.239998,,2013-06-15 13:53:00,
2013-06-15 11:00:00,70.0,61.0,-100.00,SSE,157,5.0,-999.0,74,-99.99,,,-99.99,308.559998,,2013-06-15 15:00:00,
2013-06-15 11:33:00,70.0,61.0,-100.00,SSE,157,5.0,-999.0,74,-99.99,,,-99.99,308.559998,,2013-06-15 15:33:00,
2013-06-15 11:43:00,70.0,61.0,-100.00,SSE,157,5.0,-999.0,74,-99.99,,,-99.99,308.559998,,2013-06-15 15:43:00,
2013-06-15 11:53:00,70.0,61.0,-100.00,SSE,157,5.0,-999.0,74,-99.99,,,-99.99,308.559998,,2013-06-15 15:53:00,
2013-06-15 14:00:00,67.0,64.0,-100.00,SW,225,4.0,-999.0,89,0.02,,,-99.99,136.880005,,2013-06-15 18:00:00,
2013-06-15 14:33:00,67.0,64.0,-100.00,SW,225,4.0,-999.0,89,0.02,,,-99.99,136.880005,,2013-06-15 18:33:00,
2013-06-15 14:43:00,67.0,64.0,-100.00,SW,225,4.0,-999.0,89,0.02,,,-99.99,136.880005,,2013-06-15 18:43:00,
2013-06-15 14:53:00,67.0,64.0,-100.00,SW,225,4.0,-999.0,89,0.02,,,-99.99,136.880005,,2013-06-15 18:53:00,
2013-06-15 15:00:00,66.0,64.0,-100.00,WSW,247,3.0,-999.0,93,0.01,,,-99.99,105.559998,,2013-06-15 19:00:00,
2013-06-15 15:33:00,66.0,64.0,-100.00,WSW,247,3.0,-999.0,93,0.01,,,-99.99,105.559998,,2013-06-15 19:33:00,
2013-06-15 15:43:00,66.0,64.0,-100.00,WSW,247,3.0,-999.0,93,0.01,,,-99.99,105.559998,,2013-06-15 19:43:00,
2013-06-15 15:53:00,66.0,64.0,-100.00,WSW,247,3.0,-999.0,93,0.01,,,-99.99,105.559998,,2013-06-15 19:53:00,
2013-06-15 17:00:00,68.0,66.0,-100.00,SE,135,4.0,-999.0,94,0.01,,,-99.99,235.479996,,2013-06-15 21:00:00,
2013-06-15 17:34:00,68.0,66.0,-100.00,SE,135,4.0,-999.0,94,0.01,,,-99.99,235.479996,,2013-06-15 21:34:00,
2013-06-15 17:42:00,68.0,66.0,-100.00,SE,135,4.0,-999.0,94,0.01,,,-99.99,235.479996,,2013-06-15 21:42:00,
2013-06-15 17:53:00,68.0,66.0,-100.00,SE,135,4.0,-999.0,94,0.01,,,-99.99,235.479996,,2013-06-15 21:53:00,
2013-06-15 18:00:00,69.0,66.0,-100.00,SE,135,6.0,-999.0,90,-99.99,,,-99.99,414.119995,,2013-06-15 22:00:00,
2013-06-15 18:33:00,69.0,66.0,-100.00,SE,135,6.0,-999.0,90,-99.99,,,-99.99,414.119995,,2013-06-15 22:33:00,
2013-06-15 18:43:00,69.0,66.0,-100.00,SE,135,6.0,-999.0,90,-99.99,,,-99.99,414.119995,,2013-06-15 22:43:00,
2013-06-15 18:53:00,69.0,66.0,-100.00,SE,135,6.0,-999.0,90,-99.99,,,-99.99,414.119995,,2013-06-15 22:53:00,
2013-06-15 20:00:00,71.0,63.0,-100.00,SSE,157,6.0,-999.0,76,-99.99,,,-99.99,234.320007,,2013-06-16 00:00:00,
2013-06-15 20:34:00,71.0,63.0,-100.00,SSE,157,6.0,-999.0,76,-99.99,,,-99.99,234.320007,,2013-06-16 00:34:00,
2013-06-15 20:43:00,71.0,63.0,-100.00,SSE,157,6.0,-999.0,76,-99.99,,,-99.99,234.320007,,2013-06-16 00:43:00,
2013-06-15 20:52:00,71.0,63.0,-100.00,SSE,157,6.0,-999.0,76,-99.99,,,-99.99,234.320007,,2013-06-16 00:52:00,
2013-06-15 21:00:00,70.0,63.0,-100.00,SSE,157,5.0,-999.0,80,-99.99,,,-99.99,75.400002,,2013-06-16 01:00:00,
2013-06-15 21:33:00,70.0,63.0,-100.00,SSE,157,5.0,-999.0,80,-99.99,,,-99.99,75.400002,,2013-06-16 01:33:00,
2013-06-15 21:43:00,70.0,63.0,-100.00,SSE,157,5.0,-999.0,80,-99.99,,,-99.99,75.400002,,2013-06-16 01:43:00,
2013-06-15 21:53:00,70.0,63.0,-100.00,SSE,157,5.0,-999.0,80,-99.99,,,-99.99,75.400002,,2013-06-16 01:53:00,
2013-06-15 23:00:00,66.0,62.0,-100.00,SSE,157,4.0,-999.0,88,-99.99,,,-99.99,0.000000,,2013-06-16 03:00:00,
2013-06-15 23:34:00,66.0,62.0,-100.00,SSE,157,4.0,-999.0,88,-99.99,,,-99.99,0.000000,,2013-06-16 03:34:00,
2013-06-15 23:43:00,66.0,62.0,-100.00,SSE,157,4.0,-999.0,88,-99.99,,,-99.99,0.000000,,2013-06-16 03:43:00,
2013-06-15 23:53:00,66.0,62.0,-100.00,SSE,157,4.0,-999.0,88,-99.99,,,-99.99,0.000000,,2013-06-16 03:53:00,